sensor_id;sensor_type;location;lat;lon;timestamp;temperature;humidity
8684;DHT22;4379;59.744;18.206;2024-01-30T00:01:54;-1.20;99.90
8684;DHT22;4379;59.744;18.206;2024-01-30T00:04:21;-1.30;99.90
8684;DHT22;4379;59.744;18.206;2024-01-30T00:06:48;-1.30;99.90
8684;DHT22;4379;59.744;18.206;2024-01-30T00:09:15;-1.20;99.90
8684;DHT22;4379;59.744;18.206;2024-01-30T00:11:42;-1.30;99.90
8684;DHT22;4379;59.744;18.206;2024-01-30T00:14:09;-1.50;99.90
8684;DHT22;4379;59.744;18.206;2024-01-30T00:16:39;-1.40;99.90
8684;DHT22;4379;59.744;18.206;2024-01-30T00:19:06;-1.40;99.90
8684;DHT22;4379;59.744;18.206;2024-01-30T00:21:35;-1.30;99.90
8684;DHT22;4379;59.744;18.206;2024-01-30T00:24:02;-1.20;99.90
8684;DHT22;4379;59.744;18.206;2024-01-30T00:26:29;-1.10;99.90
8684;DHT22;4379;59.744;18.206;2024-01-30T00:28:57;-1.00;99.90
8684;DHT22;4379;59.744;18.206;2024-01-30T00:31:24;-1.00;99.90
8684;DHT22;4379;59.744;18.206;2024-01-30T00:33:52;-0.90;99.90
8684;DHT22;4379;59.744;18.206;2024-01-30T00:36:22;-0.90;99.90
8684;DHT22;4379;59.744;18.206;2024-01-30T00:38:49;-1.00;99.90
8684;DHT22;4379;59.744;18.206;2024-01-30T00:41:17;-0.80;99.90
8684;DHT22;4379;59.744;18.206;2024-01-30T00:43:45;-1.00;99.90
8684;DHT22;4379;59.744;18.206;2024-01-30T00:46:12;-1.30;99.90
8684;DHT22;4379;59.744;18.206;2024-01-30T00:48:39;-1.40;99.90
8684;DHT22;4379;59.744;18.206;2024-01-30T00:51:06;-1.30;99.90
8684;DHT22;4379;59.744;18.206;2024-01-30T00:53:33;-1.00;99.90
8684;DHT22;4379;59.744;18.206;2024-01-30T00:56:00;-0.90;99.90
8684;DHT22;4379;59.744;18.206;2024-01-30T00:58:27;-0.90;99.90
8684;DHT22;4379;59.744;18.206;2024-01-30T01:00:54;-1.00;99.90
8684;DHT22;4379;59.744;18.206;2024-01-30T01:03:22;-0.90;99.90
8684;DHT22;4379;59.744;18.206;2024-01-30T01:05:49;-0.90;99.90
8684;DHT22;4379;59.744;18.206;2024-01-30T01:08:16;-1.00;99.90
8684;DHT22;4379;59.744;18.206;2024-01-30T01:10:43;-0.90;99.90
8684;DHT22;4379;59.744;18.206;2024-01-30T01:13:10;-1.00;99.90
8684;DHT22;4379;59.744;18.206;2024-01-30T01:15:37;-0.90;99.90
8684;DHT22;4379;59.744;18.206;2024-01-30T01:18:05;-0.80;99.90
8684;DHT22;4379;59.744;18.206;2024-01-30T01:20:35;-0.80;99.90
8684;DHT22;4379;59.744;18.206;2024-01-30T01:23:02;-0.80;99.90
8684;DHT22;4379;59.744;18.206;2024-01-30T01:25:35;-0.80;99.90
8684;DHT22;4379;59.744;18.206;2024-01-30T01:28:02;-1.00;99.90
8684;DHT22;4379;59.744;18.206;2024-01-30T01:30:31;-1.10;99.90
8684;DHT22;4379;59.744;18.206;2024-01-30T01:32:58;-1.10;99.90
8684;DHT22;4379;59.744;18.206;2024-01-30T01:35:28;-1.10;99.90
8684;DHT22;4379;59.744;18.206;2024-01-30T01:37:55;-1.10;99.90
8684;DHT22;4379;59.744;18.206;2024-01-30T01:40:23;-1.10;99.90
8684;DHT22;4379;59.744;18.206;2024-01-30T01:42:51;-1.10;99.90
8684;DHT22;4379;59.744;18.206;2024-01-30T01:45:20;-1.10;99.90
8684;DHT22;4379;59.744;18.206;2024-01-30T01:47:50;-1.10;99.90
8684;DHT22;4379;59.744;18.206;2024-01-30T01:50:18;-1.00;99.90
8684;DHT22;4379;59.744;18.206;2024-01-30T01:52:48;-1.10;99.90
8684;DHT22;4379;59.744;18.206;2024-01-30T01:55:16;-1.00;99.90
8684;DHT22;4379;59.744;18.206;2024-01-30T01:57:45;-1.10;99.90
8684;DHT22;4379;59.744;18.206;2024-01-30T02:00:14;-1.00;99.90
8684;DHT22;4379;59.744;18.206;2024-01-30T02:02:43;-1.10;99.90
8684;DHT22;4379;59.744;18.206;2024-01-30T02:05:12;-1.20;99.90
8684;DHT22;4379;59.744;18.206;2024-01-30T02:07:39;-1.30;99.90
8684;DHT22;4379;59.744;18.206;2024-01-30T02:10:08;-1.20;99.90
8684;DHT22;4379;59.744;18.206;2024-01-30T02:12:36;-1.30;99.90
8684;DHT22;4379;59.744;18.206;2024-01-30T02:15:04;-1.20;99.90
8684;DHT22;4379;59.744;18.206;2024-01-30T02:17:34;-1.20;99.90
8684;DHT22;4379;59.744;18.206;2024-01-30T02:20:03;-1.20;99.90
8684;DHT22;4379;59.744;18.206;2024-01-30T02:22:32;-1.00;99.90
8684;DHT22;4379;59.744;18.206;2024-01-30T02:25:01;-1.10;99.90
8684;DHT22;4379;59.744;18.206;2024-01-30T02:27:28;-1.00;99.90
8684;DHT22;4379;59.744;18.206;2024-01-30T02:29:55;-1.00;99.90
8684;DHT22;4379;59.744;18.206;2024-01-30T02:32:22;-1.00;99.90
8684;DHT22;4379;59.744;18.206;2024-01-30T02:34:49;-1.00;99.90
8684;DHT22;4379;59.744;18.206;2024-01-30T02:37:17;-1.20;99.90
8684;DHT22;4379;59.744;18.206;2024-01-30T02:39:44;-1.20;99.90
8684;DHT22;4379;59.744;18.206;2024-01-30T02:42:11;-1.10;99.90
8684;DHT22;4379;59.744;18.206;2024-01-30T02:44:38;-1.00;99.90
8684;DHT22;4379;59.744;18.206;2024-01-30T02:47:05;-1.10;99.90
8684;DHT22;4379;59.744;18.206;2024-01-30T02:49:32;-1.10;99.90
8684;DHT22;4379;59.744;18.206;2024-01-30T02:51:59;-1.30;99.90
8684;DHT22;4379;59.744;18.206;2024-01-30T02:54:27;-1.20;99.90
8684;DHT22;4379;59.744;18.206;2024-01-30T02:56:54;-1.30;99.90
8684;DHT22;4379;59.744;18.206;2024-01-30T02:59:21;-1.20;99.90
8684;DHT22;4379;59.744;18.206;2024-01-30T03:01:48;-1.20;99.90
8684;DHT22;4379;59.744;18.206;2024-01-30T03:04:15;-1.10;99.90
8684;DHT22;4379;59.744;18.206;2024-01-30T03:06:46;-1.20;99.90
8684;DHT22;4379;59.744;18.206;2024-01-30T03:09:17;-1.10;99.90
8684;DHT22;4379;59.744;18.206;2024-01-30T03:11:45;-1.20;99.90
8684;DHT22;4379;59.744;18.206;2024-01-30T03:14:12;-1.10;99.90
8684;DHT22;4379;59.744;18.206;2024-01-30T03:16:39;-1.10;99.90
8684;DHT22;4379;59.744;18.206;2024-01-30T03:19:07;-1.00;99.90
8684;DHT22;4379;59.744;18.206;2024-01-30T03:21:37;-1.00;99.90
8684;DHT22;4379;59.744;18.206;2024-01-30T03:24:04;-1.00;99.90
8684;DHT22;4379;59.744;18.206;2024-01-30T03:26:32;-1.20;99.90
8684;DHT22;4379;59.744;18.206;2024-01-30T03:28:59;-1.10;99.90
8684;DHT22;4379;59.744;18.206;2024-01-30T03:31:26;-1.00;99.90
8684;DHT22;4379;59.744;18.206;2024-01-30T03:33:54;-1.00;99.90
8684;DHT22;4379;59.744;18.206;2024-01-30T03:36:21;-1.30;99.90
8684;DHT22;4379;59.744;18.206;2024-01-30T03:38:48;-1.40;99.90
8684;DHT22;4379;59.744;18.206;2024-01-30T03:41:15;-1.30;99.90
8684;DHT22;4379;59.744;18.206;2024-01-30T03:43:42;-1.10;99.90
8684;DHT22;4379;59.744;18.206;2024-01-30T03:46:11;-1.00;99.90
8684;DHT22;4379;59.744;18.206;2024-01-30T03:48:38;-1.00;99.90
8684;DHT22;4379;59.744;18.206;2024-01-30T03:51:06;-0.90;99.90
8684;DHT22;4379;59.744;18.206;2024-01-30T03:53:33;-0.90;99.90
8684;DHT22;4379;59.744;18.206;2024-01-30T03:56:00;-1.00;99.90
8684;DHT22;4379;59.744;18.206;2024-01-30T03:58:30;-1.00;99.90
8684;DHT22;4379;59.744;18.206;2024-01-30T04:00:57;-0.90;99.90
8684;DHT22;4379;59.744;18.206;2024-01-30T04:03:24;-0.90;99.90
8684;DHT22;4379;59.744;18.206;2024-01-30T04:05:52;-0.90;99.90
8684;DHT22;4379;59.744;18.206;2024-01-30T04:08:19;-1.00;99.90
8684;DHT22;4379;59.744;18.206;2024-01-30T04:10:47;-1.10;99.90
8684;DHT22;4379;59.744;18.206;2024-01-30T04:13:14;-1.30;99.90
8684;DHT22;4379;59.744;18.206;2024-01-30T04:15:42;-1.30;99.90
8684;DHT22;4379;59.744;18.206;2024-01-30T04:18:10;-1.40;99.90
8684;DHT22;4379;59.744;18.206;2024-01-30T04:20:37;-1.40;99.90
8684;DHT22;4379;59.744;18.206;2024-01-30T04:23:04;-1.40;99.90
8684;DHT22;4379;59.744;18.206;2024-01-30T04:25:31;-1.40;99.90
8684;DHT22;4379;59.744;18.206;2024-01-30T04:27:59;-1.30;99.90
8684;DHT22;4379;59.744;18.206;2024-01-30T04:30:26;-1.30;99.90
8684;DHT22;4379;59.744;18.206;2024-01-30T04:32:53;-1.30;99.90
8684;DHT22;4379;59.744;18.206;2024-01-30T04:35:20;-1.30;99.90
8684;DHT22;4379;59.744;18.206;2024-01-30T04:37:52;-1.40;99.90
8684;DHT22;4379;59.744;18.206;2024-01-30T04:40:21;-1.40;99.90
8684;DHT22;4379;59.744;18.206;2024-01-30T04:42:48;-1.50;99.90
8684;DHT22;4379;59.744;18.206;2024-01-30T04:45:15;-1.50;99.90
8684;DHT22;4379;59.744;18.206;2024-01-30T04:47:42;-1.50;99.90
8684;DHT22;4379;59.744;18.206;2024-01-30T04:50:09;-1.40;99.90
8684;DHT22;4379;59.744;18.206;2024-01-30T04:52:37;-1.30;99.90
8684;DHT22;4379;59.744;18.206;2024-01-30T04:55:05;-1.30;99.90
8684;DHT22;4379;59.744;18.206;2024-01-30T04:57:33;-1.40;99.90
8684;DHT22;4379;59.744;18.206;2024-01-30T05:00:00;-1.40;99.90
8684;DHT22;4379;59.744;18.206;2024-01-30T05:02:27;-1.30;99.90
8684;DHT22;4379;59.744;18.206;2024-01-30T05:04:55;-1.40;99.90
8684;DHT22;4379;59.744;18.206;2024-01-30T05:07:22;-1.40;99.90
8684;DHT22;4379;59.744;18.206;2024-01-30T05:09:49;-1.40;99.90
8684;DHT22;4379;59.744;18.206;2024-01-30T05:12:16;-1.50;99.90
8684;DHT22;4379;59.744;18.206;2024-01-30T05:14:43;-1.40;99.90
8684;DHT22;4379;59.744;18.206;2024-01-30T05:17:10;-1.30;99.90
8684;DHT22;4379;59.744;18.206;2024-01-30T05:19:39;-1.40;99.90
8684;DHT22;4379;59.744;18.206;2024-01-30T05:22:06;-1.40;99.90
8684;DHT22;4379;59.744;18.206;2024-01-30T05:24:33;-1.20;99.90
8684;DHT22;4379;59.744;18.206;2024-01-30T05:27:01;-1.10;99.90
8684;DHT22;4379;59.744;18.206;2024-01-30T05:29:28;-1.30;99.90
8684;DHT22;4379;59.744;18.206;2024-01-30T05:31:55;-1.20;99.90
8684;DHT22;4379;59.744;18.206;2024-01-30T05:34:22;-1.30;99.90
8684;DHT22;4379;59.744;18.206;2024-01-30T05:36:49;-1.30;99.90
8684;DHT22;4379;59.744;18.206;2024-01-30T05:39:16;-1.30;99.90
8684;DHT22;4379;59.744;18.206;2024-01-30T05:41:43;-1.30;99.90
8684;DHT22;4379;59.744;18.206;2024-01-30T05:44:10;-1.20;99.90
8684;DHT22;4379;59.744;18.206;2024-01-30T05:46:37;-1.10;99.90
8684;DHT22;4379;59.744;18.206;2024-01-30T05:49:04;-0.90;99.90
8684;DHT22;4379;59.744;18.206;2024-01-30T05:51:31;-0.90;99.90
8684;DHT22;4379;59.744;18.206;2024-01-30T05:53:58;-0.70;99.90
8684;DHT22;4379;59.744;18.206;2024-01-30T05:56:25;-0.60;99.90
8684;DHT22;4379;59.744;18.206;2024-01-30T05:58:53;-0.50;99.90
8684;DHT22;4379;59.744;18.206;2024-01-30T06:01:20;-0.50;99.90
8684;DHT22;4379;59.744;18.206;2024-01-30T06:03:47;-0.50;99.90
8684;DHT22;4379;59.744;18.206;2024-01-30T06:06:15;-0.60;99.90
8684;DHT22;4379;59.744;18.206;2024-01-30T06:08:42;-0.80;99.90
8684;DHT22;4379;59.744;18.206;2024-01-30T06:11:12;-0.90;99.90
8684;DHT22;4379;59.744;18.206;2024-01-30T06:13:39;-0.90;99.90
8684;DHT22;4379;59.744;18.206;2024-01-30T06:16:10;-0.90;99.90
8684;DHT22;4379;59.744;18.206;2024-01-30T06:18:38;-0.90;99.90
8684;DHT22;4379;59.744;18.206;2024-01-30T06:21:05;-0.90;99.90
8684;DHT22;4379;59.744;18.206;2024-01-30T06:23:35;-0.70;99.90
8684;DHT22;4379;59.744;18.206;2024-01-30T06:26:07;-0.70;99.90
8684;DHT22;4379;59.744;18.206;2024-01-30T06:28:34;-0.70;99.90
8684;DHT22;4379;59.744;18.206;2024-01-30T06:31:01;-0.80;99.90
8684;DHT22;4379;59.744;18.206;2024-01-30T06:33:28;-0.80;99.90
8684;DHT22;4379;59.744;18.206;2024-01-30T06:35:56;-0.70;99.90
8684;DHT22;4379;59.744;18.206;2024-01-30T06:38:23;-0.70;99.90
8684;DHT22;4379;59.744;18.206;2024-01-30T06:40:50;-0.70;99.90
8684;DHT22;4379;59.744;18.206;2024-01-30T06:43:16;-0.70;99.90
8684;DHT22;4379;59.744;18.206;2024-01-30T06:45:44;-1.00;99.90
8684;DHT22;4379;59.744;18.206;2024-01-30T06:48:11;-1.10;99.90
8684;DHT22;4379;59.744;18.206;2024-01-30T06:50:38;-1.20;99.90
8684;DHT22;4379;59.744;18.206;2024-01-30T06:53:05;-1.30;99.90
8684;DHT22;4379;59.744;18.206;2024-01-30T06:55:32;-1.30;99.90
8684;DHT22;4379;59.744;18.206;2024-01-30T06:57:59;-1.30;99.90
8684;DHT22;4379;59.744;18.206;2024-01-30T07:00:26;-1.10;99.90
8684;DHT22;4379;59.744;18.206;2024-01-30T07:02:54;-0.90;99.90
8684;DHT22;4379;59.744;18.206;2024-01-30T07:05:21;-0.90;99.90
8684;DHT22;4379;59.744;18.206;2024-01-30T07:07:49;-0.90;99.90
8684;DHT22;4379;59.744;18.206;2024-01-30T07:10:16;-1.00;99.90
8684;DHT22;4379;59.744;18.206;2024-01-30T07:12:43;-0.90;99.90
8684;DHT22;4379;59.744;18.206;2024-01-30T07:15:10;-0.90;99.90
8684;DHT22;4379;59.744;18.206;2024-01-30T07:17:37;-0.90;99.90
8684;DHT22;4379;59.744;18.206;2024-01-30T07:20:05;-0.90;99.90
8684;DHT22;4379;59.744;18.206;2024-01-30T07:22:33;-0.80;99.90
8684;DHT22;4379;59.744;18.206;2024-01-30T07:25:00;-0.80;99.90
8684;DHT22;4379;59.744;18.206;2024-01-30T07:27:28;-1.20;99.90
8684;DHT22;4379;59.744;18.206;2024-01-30T07:29:55;-1.30;99.90
8684;DHT22;4379;59.744;18.206;2024-01-30T07:32:22;-1.20;99.90
8684;DHT22;4379;59.744;18.206;2024-01-30T07:34:49;-1.40;99.90
8684;DHT22;4379;59.744;18.206;2024-01-30T07:37:32;-1.40;99.90
8684;DHT22;4379;59.744;18.206;2024-01-30T07:40:00;-1.60;99.90
8684;DHT22;4379;59.744;18.206;2024-01-30T07:42:28;-1.50;99.90
8684;DHT22;4379;59.744;18.206;2024-01-30T07:44:55;-1.40;99.90
8684;DHT22;4379;59.744;18.206;2024-01-30T07:47:22;-1.20;99.90
8684;DHT22;4379;59.744;18.206;2024-01-30T07:49:49;-1.10;99.90
8684;DHT22;4379;59.744;18.206;2024-01-30T07:52:16;-0.90;99.90
8684;DHT22;4379;59.744;18.206;2024-01-30T07:55:02;-0.70;99.90
8684;DHT22;4379;59.744;18.206;2024-01-30T07:57:46;-0.60;99.90
8684;DHT22;4379;59.744;18.206;2024-01-30T08:00:16;-0.60;99.90
8684;DHT22;4379;59.744;18.206;2024-01-30T08:02:44;-0.60;99.90
8684;DHT22;4379;59.744;18.206;2024-01-30T08:05:11;-0.70;99.90
8684;DHT22;4379;59.744;18.206;2024-01-30T08:07:38;-0.70;99.90
8684;DHT22;4379;59.744;18.206;2024-01-30T08:10:05;-0.80;99.90
8684;DHT22;4379;59.744;18.206;2024-01-30T08:12:33;-0.90;99.90
8684;DHT22;4379;59.744;18.206;2024-01-30T08:15:00;-0.80;99.90
8684;DHT22;4379;59.744;18.206;2024-01-30T08:17:27;-0.70;99.90
8684;DHT22;4379;59.744;18.206;2024-01-30T08:19:54;-0.70;99.90
8684;DHT22;4379;59.744;18.206;2024-01-30T08:22:21;-0.60;99.90
8684;DHT22;4379;59.744;18.206;2024-01-30T08:24:48;-0.50;99.90
8684;DHT22;4379;59.744;18.206;2024-01-30T08:27:15;-0.50;99.90
8684;DHT22;4379;59.744;18.206;2024-01-30T08:29:43;-0.40;99.90
8684;DHT22;4379;59.744;18.206;2024-01-30T08:32:10;-0.10;99.90
8684;DHT22;4379;59.744;18.206;2024-01-30T08:34:37;0.20;99.90
8684;DHT22;4379;59.744;18.206;2024-01-30T08:37:05;0.10;99.90
8684;DHT22;4379;59.744;18.206;2024-01-30T08:39:32;-0.10;99.90
8684;DHT22;4379;59.744;18.206;2024-01-30T08:41:59;0.00;99.90
8684;DHT22;4379;59.744;18.206;2024-01-30T08:44:26;0.10;99.90
8684;DHT22;4379;59.744;18.206;2024-01-30T08:46:54;0.20;99.90
8684;DHT22;4379;59.744;18.206;2024-01-30T08:49:23;0.40;99.90
8684;DHT22;4379;59.744;18.206;2024-01-30T08:51:50;0.60;99.90
8684;DHT22;4379;59.744;18.206;2024-01-30T08:54:17;0.90;99.90
8684;DHT22;4379;59.744;18.206;2024-01-30T08:56:44;0.90;99.90
8684;DHT22;4379;59.744;18.206;2024-01-30T08:59:11;1.00;99.90
8684;DHT22;4379;59.744;18.206;2024-01-30T09:01:39;1.10;99.90
8684;DHT22;4379;59.744;18.206;2024-01-30T09:04:21;1.20;99.90
8684;DHT22;4379;59.744;18.206;2024-01-30T09:06:52;1.30;99.90
8684;DHT22;4379;59.744;18.206;2024-01-30T09:09:19;1.40;99.90
8684;DHT22;4379;59.744;18.206;2024-01-30T09:11:47;1.40;99.90
8684;DHT22;4379;59.744;18.206;2024-01-30T09:14:14;1.40;99.90
8684;DHT22;4379;59.744;18.206;2024-01-30T09:16:41;1.30;99.90
8684;DHT22;4379;59.744;18.206;2024-01-30T09:19:08;1.10;99.90
8684;DHT22;4379;59.744;18.206;2024-01-30T09:21:36;1.00;99.90
8684;DHT22;4379;59.744;18.206;2024-01-30T09:24:03;0.90;99.90
8684;DHT22;4379;59.744;18.206;2024-01-30T09:26:33;0.80;99.90
8684;DHT22;4379;59.744;18.206;2024-01-30T09:29:00;0.90;99.90
8684;DHT22;4379;59.744;18.206;2024-01-30T09:31:27;1.20;99.90
8684;DHT22;4379;59.744;18.206;2024-01-30T09:33:54;1.00;99.90
8684;DHT22;4379;59.744;18.206;2024-01-30T09:36:21;0.70;99.90
8684;DHT22;4379;59.744;18.206;2024-01-30T09:38:48;0.70;99.90
8684;DHT22;4379;59.744;18.206;2024-01-30T09:41:16;0.70;99.90
8684;DHT22;4379;59.744;18.206;2024-01-30T09:43:48;0.80;99.90
8684;DHT22;4379;59.744;18.206;2024-01-30T09:46:17;1.20;99.90
8684;DHT22;4379;59.744;18.206;2024-01-30T09:48:47;1.40;99.90
8684;DHT22;4379;59.744;18.206;2024-01-30T09:51:15;1.40;99.90
8684;DHT22;4379;59.744;18.206;2024-01-30T09:53:43;1.30;99.90
8684;DHT22;4379;59.744;18.206;2024-01-30T09:56:14;1.30;99.90
8684;DHT22;4379;59.744;18.206;2024-01-30T09:58:41;1.50;99.90
8684;DHT22;4379;59.744;18.206;2024-01-30T10:01:08;1.30;99.90
8684;DHT22;4379;59.744;18.206;2024-01-30T10:03:36;1.30;99.90
8684;DHT22;4379;59.744;18.206;2024-01-30T10:06:03;1.60;99.90
8684;DHT22;4379;59.744;18.206;2024-01-30T10:08:30;1.70;99.90
8684;DHT22;4379;59.744;18.206;2024-01-30T10:10:57;1.90;99.90
8684;DHT22;4379;59.744;18.206;2024-01-30T10:13:25;2.00;99.90
8684;DHT22;4379;59.744;18.206;2024-01-30T10:15:53;2.00;99.90
8684;DHT22;4379;59.744;18.206;2024-01-30T10:18:25;2.00;99.90
8684;DHT22;4379;59.744;18.206;2024-01-30T10:20:52;2.00;99.90
8684;DHT22;4379;59.744;18.206;2024-01-30T10:23:19;2.20;99.90
8684;DHT22;4379;59.744;18.206;2024-01-30T10:25:47;2.20;99.90
8684;DHT22;4379;59.744;18.206;2024-01-30T10:28:14;2.30;99.90
8684;DHT22;4379;59.744;18.206;2024-01-30T10:30:45;2.20;99.90
8684;DHT22;4379;59.744;18.206;2024-01-30T10:33:12;2.20;99.90
8684;DHT22;4379;59.744;18.206;2024-01-30T10:35:40;2.20;99.90
8684;DHT22;4379;59.744;18.206;2024-01-30T10:38:09;2.30;99.90
8684;DHT22;4379;59.744;18.206;2024-01-30T10:40:38;2.40;99.90
8684;DHT22;4379;59.744;18.206;2024-01-30T10:43:07;2.30;99.90
8684;DHT22;4379;59.744;18.206;2024-01-30T10:45:39;2.10;99.90
8684;DHT22;4379;59.744;18.206;2024-01-30T10:48:09;2.30;99.90
8684;DHT22;4379;59.744;18.206;2024-01-30T10:50:38;2.50;99.90
8684;DHT22;4379;59.744;18.206;2024-01-30T10:53:19;2.60;99.90
8684;DHT22;4379;59.744;18.206;2024-01-30T10:55:47;2.60;99.90
8684;DHT22;4379;59.744;18.206;2024-01-30T10:58:15;2.70;99.90
8684;DHT22;4379;59.744;18.206;2024-01-30T11:00:43;2.80;99.90
8684;DHT22;4379;59.744;18.206;2024-01-30T11:03:11;2.80;99.90
8684;DHT22;4379;59.744;18.206;2024-01-30T11:05:40;2.70;99.90
8684;DHT22;4379;59.744;18.206;2024-01-30T11:08:12;2.60;99.90
8684;DHT22;4379;59.744;18.206;2024-01-30T11:10:46;2.70;99.90
8684;DHT22;4379;59.744;18.206;2024-01-30T11:13:19;2.80;99.90
8684;DHT22;4379;59.744;18.206;2024-01-30T11:15:48;2.70;99.90
8684;DHT22;4379;59.744;18.206;2024-01-30T11:18:25;2.80;99.90
8684;DHT22;4379;59.744;18.206;2024-01-30T11:20:56;2.90;99.90
8684;DHT22;4379;59.744;18.206;2024-01-30T11:23:23;2.80;99.90
8684;DHT22;4379;59.744;18.206;2024-01-30T11:25:53;2.90;99.90
8684;DHT22;4379;59.744;18.206;2024-01-30T11:28:21;3.00;99.90
8684;DHT22;4379;59.744;18.206;2024-01-30T11:30:49;3.10;99.90
8684;DHT22;4379;59.744;18.206;2024-01-30T11:33:29;3.20;99.90
8684;DHT22;4379;59.744;18.206;2024-01-30T11:36:01;3.30;99.90
8684;DHT22;4379;59.744;18.206;2024-01-30T11:38:34;3.40;99.90
8684;DHT22;4379;59.744;18.206;2024-01-30T11:41:02;3.40;99.90
8684;DHT22;4379;59.744;18.206;2024-01-30T11:43:30;3.40;99.90
8684;DHT22;4379;59.744;18.206;2024-01-30T11:45:57;3.50;99.90
8684;DHT22;4379;59.744;18.206;2024-01-30T11:48:26;3.30;99.90
8684;DHT22;4379;59.744;18.206;2024-01-30T11:50:54;3.00;99.90
8684;DHT22;4379;59.744;18.206;2024-01-30T11:53:24;2.90;99.90
8684;DHT22;4379;59.744;18.206;2024-01-30T11:55:51;2.90;99.90
8684;DHT22;4379;59.744;18.206;2024-01-30T11:58:19;2.80;99.90
8684;DHT22;4379;59.744;18.206;2024-01-30T12:00:55;2.80;99.90
8684;DHT22;4379;59.744;18.206;2024-01-30T12:03:23;2.60;99.90
8684;DHT22;4379;59.744;18.206;2024-01-30T12:05:57;2.90;99.90
8684;DHT22;4379;59.744;18.206;2024-01-30T12:08:26;3.10;99.90
8684;DHT22;4379;59.744;18.206;2024-01-30T12:10:57;3.20;99.90
8684;DHT22;4379;59.744;18.206;2024-01-30T12:13:26;3.30;99.90
8684;DHT22;4379;59.744;18.206;2024-01-30T12:15:59;3.40;99.90
8684;DHT22;4379;59.744;18.206;2024-01-30T12:18:26;3.50;99.90
8684;DHT22;4379;59.744;18.206;2024-01-30T12:21:00;3.50;99.90
8684;DHT22;4379;59.744;18.206;2024-01-30T12:23:28;3.10;99.90
8684;DHT22;4379;59.744;18.206;2024-01-30T12:25:55;3.10;99.90
8684;DHT22;4379;59.744;18.206;2024-01-30T12:28:22;3.10;99.90
8684;DHT22;4379;59.744;18.206;2024-01-30T12:30:50;3.20;99.90
8684;DHT22;4379;59.744;18.206;2024-01-30T12:33:17;3.20;99.90
8684;DHT22;4379;59.744;18.206;2024-01-30T12:35:48;3.20;99.90
8684;DHT22;4379;59.744;18.206;2024-01-30T12:38:28;3.30;99.90
8684;DHT22;4379;59.744;18.206;2024-01-30T12:40:55;3.10;99.90
8684;DHT22;4379;59.744;18.206;2024-01-30T12:43:24;2.90;99.90
8684;DHT22;4379;59.744;18.206;2024-01-30T12:46:04;2.80;99.90
8684;DHT22;4379;59.744;18.206;2024-01-30T12:48:31;2.70;99.90
8684;DHT22;4379;59.744;18.206;2024-01-30T12:50:58;2.80;99.90
8684;DHT22;4379;59.744;18.206;2024-01-30T12:53:26;2.70;99.90
8684;DHT22;4379;59.744;18.206;2024-01-30T12:55:53;2.80;99.90
8684;DHT22;4379;59.744;18.206;2024-01-30T12:58:21;2.80;99.90
8684;DHT22;4379;59.744;18.206;2024-01-30T13:00:49;2.60;99.90
8684;DHT22;4379;59.744;18.206;2024-01-30T13:03:16;2.80;99.90
8684;DHT22;4379;59.744;18.206;2024-01-30T13:05:43;2.90;99.90
8684;DHT22;4379;59.744;18.206;2024-01-30T13:08:10;2.90;99.90
8684;DHT22;4379;59.744;18.206;2024-01-30T13:10:37;3.00;99.90
8684;DHT22;4379;59.744;18.206;2024-01-30T13:13:04;2.80;99.90
8684;DHT22;4379;59.744;18.206;2024-01-30T13:15:40;2.90;99.90
8684;DHT22;4379;59.744;18.206;2024-01-30T13:18:07;2.90;99.90
8684;DHT22;4379;59.744;18.206;2024-01-30T13:20:35;3.00;99.90
8684;DHT22;4379;59.744;18.206;2024-01-30T13:23:02;3.10;99.90
8684;DHT22;4379;59.744;18.206;2024-01-30T13:25:29;3.10;99.90
8684;DHT22;4379;59.744;18.206;2024-01-30T13:27:56;3.00;99.90
8684;DHT22;4379;59.744;18.206;2024-01-30T13:30:24;3.00;99.90
8684;DHT22;4379;59.744;18.206;2024-01-30T13:32:52;3.10;99.90
8684;DHT22;4379;59.744;18.206;2024-01-30T13:35:21;3.10;99.90
8684;DHT22;4379;59.744;18.206;2024-01-30T13:37:48;3.20;99.90
8684;DHT22;4379;59.744;18.206;2024-01-30T13:40:15;3.10;99.90
8684;DHT22;4379;59.744;18.206;2024-01-30T13:42:43;3.10;99.90
8684;DHT22;4379;59.744;18.206;2024-01-30T13:45:10;3.10;99.90
8684;DHT22;4379;59.744;18.206;2024-01-30T13:47:38;3.10;99.90
8684;DHT22;4379;59.744;18.206;2024-01-30T13:50:06;3.00;99.90
8684;DHT22;4379;59.744;18.206;2024-01-30T13:52:34;2.90;99.90
8684;DHT22;4379;59.744;18.206;2024-01-30T13:55:11;2.90;99.90
8684;DHT22;4379;59.744;18.206;2024-01-30T13:57:38;2.80;99.90
8684;DHT22;4379;59.744;18.206;2024-01-30T14:00:08;2.90;99.90
8684;DHT22;4379;59.744;18.206;2024-01-30T14:02:36;2.90;99.90
8684;DHT22;4379;59.744;18.206;2024-01-30T14:05:03;2.90;99.90
8684;DHT22;4379;59.744;18.206;2024-01-30T14:07:32;2.90;99.90
8684;DHT22;4379;59.744;18.206;2024-01-30T14:09:59;2.90;99.90
8684;DHT22;4379;59.744;18.206;2024-01-30T14:12:27;2.90;99.90
8684;DHT22;4379;59.744;18.206;2024-01-30T14:14:54;2.90;99.90
8684;DHT22;4379;59.744;18.206;2024-01-30T14:17:21;2.90;99.90
8684;DHT22;4379;59.744;18.206;2024-01-30T14:19:48;2.90;99.90
8684;DHT22;4379;59.744;18.206;2024-01-30T14:22:15;2.90;99.90
8684;DHT22;4379;59.744;18.206;2024-01-30T14:24:42;2.80;99.90
8684;DHT22;4379;59.744;18.206;2024-01-30T14:27:10;2.80;99.90
8684;DHT22;4379;59.744;18.206;2024-01-30T14:29:37;2.80;99.90
8684;DHT22;4379;59.744;18.206;2024-01-30T14:32:05;2.60;99.90
8684;DHT22;4379;59.744;18.206;2024-01-30T14:34:32;2.50;99.90
8684;DHT22;4379;59.744;18.206;2024-01-30T14:36:59;2.40;99.90
8684;DHT22;4379;59.744;18.206;2024-01-30T14:39:26;2.30;99.90
8684;DHT22;4379;59.744;18.206;2024-01-30T14:41:53;2.20;99.90
8684;DHT22;4379;59.744;18.206;2024-01-30T14:44:20;2.20;99.90
8684;DHT22;4379;59.744;18.206;2024-01-30T14:46:48;2.10;99.90
8684;DHT22;4379;59.744;18.206;2024-01-30T14:49:15;2.00;99.90
8684;DHT22;4379;59.744;18.206;2024-01-30T14:51:42;2.10;99.90
8684;DHT22;4379;59.744;18.206;2024-01-30T14:54:10;2.20;99.90
8684;DHT22;4379;59.744;18.206;2024-01-30T14:56:38;2.30;99.90
8684;DHT22;4379;59.744;18.206;2024-01-30T14:59:05;2.30;99.90
8684;DHT22;4379;59.744;18.206;2024-01-30T15:01:32;2.30;99.90
8684;DHT22;4379;59.744;18.206;2024-01-30T15:03:59;2.20;99.90
8684;DHT22;4379;59.744;18.206;2024-01-30T15:06:26;2.20;99.90
8684;DHT22;4379;59.744;18.206;2024-01-30T15:08:54;2.20;99.90
8684;DHT22;4379;59.744;18.206;2024-01-30T15:11:21;2.20;99.90
8684;DHT22;4379;59.744;18.206;2024-01-30T15:13:48;2.20;99.90
8684;DHT22;4379;59.744;18.206;2024-01-30T15:16:16;2.30;99.90
8684;DHT22;4379;59.744;18.206;2024-01-30T15:18:43;2.30;99.90
8684;DHT22;4379;59.744;18.206;2024-01-30T15:21:10;2.20;99.90
8684;DHT22;4379;59.744;18.206;2024-01-30T15:23:37;2.10;99.90
8684;DHT22;4379;59.744;18.206;2024-01-30T15:26:04;2.10;99.90
8684;DHT22;4379;59.744;18.206;2024-01-30T15:28:38;2.10;99.90
8684;DHT22;4379;59.744;18.206;2024-01-30T15:31:06;2.20;99.90
8684;DHT22;4379;59.744;18.206;2024-01-30T15:33:35;2.30;99.90
8684;DHT22;4379;59.744;18.206;2024-01-30T15:36:03;2.20;99.90
8684;DHT22;4379;59.744;18.206;2024-01-30T15:38:31;2.30;99.90
8684;DHT22;4379;59.744;18.206;2024-01-30T15:40:58;2.10;99.90
8684;DHT22;4379;59.744;18.206;2024-01-30T15:43:28;2.20;99.90
8684;DHT22;4379;59.744;18.206;2024-01-30T15:45:55;2.20;99.90
8684;DHT22;4379;59.744;18.206;2024-01-30T15:48:22;2.10;99.90
8684;DHT22;4379;59.744;18.206;2024-01-30T15:50:49;2.00;99.90
8684;DHT22;4379;59.744;18.206;2024-01-30T15:53:16;2.00;99.90
8684;DHT22;4379;59.744;18.206;2024-01-30T15:55:43;1.90;99.90
8684;DHT22;4379;59.744;18.206;2024-01-30T15:58:11;2.00;99.90